Map

Track Data

SID SEASON NUMBER BASIN SUBBASIN NAME ISO_TIME NATURE LAT LON WMO_WIND WMO_PRES WMO_AGENCY TRACK_TYPE DIST2LAND LANDFALL IFLAG USA_AGENCY USA_ATCF_ID USA_LAT USA_LON USA_RECORD USA_STATUS USA_WIND USA_PRES USA_SSHS USA_R34_NE USA_R34_SE USA_R34_SW USA_R34_NW USA_R50_NE USA_R50_SE USA_R50_SW USA_R50_NW USA_R64_NE USA_R64_SE USA_R64_SW USA_R64_NW USA_POCI USA_ROCI USA_RMW USA_EYE TOKYO_LAT TOKYO_LON TOKYO_GRADE TOKYO_WIND TOKYO_PRES TOKYO_R50_DIR TOKYO_R50_LONG TOKYO_R50_SHORT TOKYO_R30_DIR TOKYO_R30_LONG TOKYO_R30_SHORT TOKYO_LAND CMA_LAT CMA_LON CMA_CAT CMA_WIND CMA_PRES HKO_LAT HKO_LON HKO_CAT HKO_WIND HKO_PRES NEWDELHI_LAT NEWDELHI_LON NEWDELHI_GRADE NEWDELHI_WIND NEWDELHI_PRES NEWDELHI_CI NEWDELHI_DP NEWDELHI_POCI REUNION_LAT REUNION_LON REUNION_TYPE REUNION_WIND REUNION_PRES REUNION_TNUM REUNION_CI REUNION_RMW REUNION_R34_NE REUNION_R34_SE REUNION_R34_SW REUNION_R34_NW REUNION_R50_NE REUNION_R50_SE REUNION_R50_SW REUNION_R50_NW REUNION_R64_NE REUNION_R64_SE REUNION_R64_SW REUNION_R64_NW BOM_LAT BOM_LON BOM_TYPE BOM_WIND BOM_PRES BOM_TNUM BOM_CI BOM_RMW BOM_R34_NE BOM_R34_SE BOM_R34_SW BOM_R34_NW BOM_R50_NE BOM_R50_SE BOM_R50_SW BOM_R50_NW BOM_R64_NE BOM_R64_SE BOM_R64_SW BOM_R64_NW BOM_ROCI BOM_POCI BOM_EYE BOM_POS_METHOD BOM_PRES_METHOD NADI_LAT NADI_LON NADI_CAT NADI_WIND NADI_PRES WELLINGTON_LAT WELLINGTON_LON WELLINGTON_WIND WELLINGTON_PRES DS824_LAT DS824_LON DS824_STAGE DS824_WIND DS824_PRES TD9636_LAT TD9636_LON TD9636_STAGE TD9636_WIND TD9636_PRES TD9635_LAT TD9635_LON TD9635_WIND TD9635_PRES TD9635_ROCI NEUMANN_LAT NEUMANN_LON NEUMANN_CLASS NEUMANN_WIND NEUMANN_PRES MLC_LAT MLC_LON MLC_CLASS MLC_WIND MLC_PRES USA_GUST BOM_GUST BOM_GUST_PER REUNION_GUST REUNION_GUST_PER USA_SEAHGT USA_SEARAD_NE USA_SEARAD_SE USA_SEARAD_SW USA_SEARAD_NW STORM_SPEED STORM_DIR
1914183N11143 1914 17 WP MM NOT_NAMED 1914-07-02 10:00:00 NR 11.3000 142.500 main 1521 1518 __________O___ -1 11.3000 142.500 7 23 290
1914183N11143 1914 17 WP MM NOT_NAMED 1914-07-02 12:00:00 NR 11.5681 141.760 main 1531 1518 __________P___ -1 11.5681 141.760 7 23 290
1914183N11143 1914 17 WP MM NOT_NAMED 1914-07-02 15:00:00 NR 11.9553 140.682 main 1529 1515 __________P___ -1 11.9553 140.682 7 22 290
1914183N11143 1914 17 WP MM NOT_NAMED 1914-07-02 18:00:00 NR 12.3091 139.690 main 1515 1427 __________P___ -1 12.3091 139.690 7 19 290
1914183N11143 1914 17 WP MM NOT_NAMED 1914-07-02 21:00:00 NR 12.6127 138.842 main 1427 1406 __________P___ -1 12.6127 138.842 7 17 290
1914183N11143 1914 17 WP MM NOT_NAMED 1914-07-02 22:00:00 NR 12.7000 138.600 main 1406 1364 __________O___ -1 12.7000 138.600 4 14 290
1914183N11143 1914 17 WP MM NOT_NAMED 1914-07-03 00:00:00 NR 12.8523 138.184 main 1366 1314 __________P___ -1 12.8523 138.184 4 11 291
1914183N11143 1914 17 WP MM NOT_NAMED 1914-07-03 03:00:00 NR 13.0380 137.694 main 1314 1275 __________P___ -1 13.0380 137.694 4 9 292
1914183N11143 1914 17 WP MM NOT_NAMED 1914-07-03 06:00:00 NR 13.1945 137.300 main 1275 1234 __________P___ -1 13.1945 137.300 4 8 293
1914183N11143 1914 17 WP MM NOT_NAMED 1914-07-03 09:00:00 NR 13.3463 136.930 main 1234 1225 __________P___ -1 13.3463 136.930 4 8 293
1914183N11143 1914 17 WP MM NOT_NAMED 1914-07-03 10:00:00 NR 13.4000 136.800 main 1225 1196 __________O___ -1 13.4000 136.800 4 10 293
1914183N11143 1914 17 WP MM NOT_NAMED 1914-07-03 12:00:00 NR 13.5327 136.481 main 1196 1148 __________P___ -1 13.5327 136.481 4 10 293
1914183N11143 1914 17 WP MM NOT_NAMED 1914-07-03 15:00:00 NR 13.7383 135.989 main 1148 1100 __________P___ -1 13.7383 135.989 4 11 293
1914183N11143 1914 17 WP MM NOT_NAMED 1914-07-03 18:00:00 NR 13.9434 135.485 main 1100 1050 __________P___ -1 13.9434 135.485 4 11 292
1914183N11143 1914 17 WP MM NOT_NAMED 1914-07-03 21:00:00 NR 14.1387 134.972 main 1050 1031 __________P___ -1 14.1387 134.972 4 11 291
1914183N11143 1914 17 WP MM NOT_NAMED 1914-07-03 22:00:00 NR 14.2000 134.800 main 1031 992 __________O___ -1 14.2000 134.800 4 11 289
1914183N11143 1914 17 WP MM NOT_NAMED 1914-07-04 00:00:00 NR 14.3087 134.448 main 992 944 __________P___ -1 14.3087 134.448 4 11 287
1914183N11143 1914 17 WP MM NOT_NAMED 1914-07-04 03:00:00 NR 14.4592 133.913 main 944 896 __________P___ -1 14.4592 133.913 4 11 286
1914183N11143 1914 17 WP MM NOT_NAMED 1914-07-04 06:00:00 NR 14.6029 133.381 main 896 848 __________P___ -1 14.6029 133.381 4 11 286
1914183N11143 1914 17 WP MM NOT_NAMED 1914-07-04 09:00:00 NR 14.7491 132.866 main 848 831 __________P___ -1 14.7491 132.866 4 10 287
1914183N11143 1914 17 WP MM NOT_NAMED 1914-07-04 10:00:00 NR 14.8000 132.700 main 831 805 __________O___ -1 14.8000 132.700 4 10 289
1914183N11143 1914 17 WP MM NOT_NAMED 1914-07-04 12:00:00 NR 14.9051 132.396 main 805 769 __________P___ -1 14.9051 132.396 4 9 291
1914183N11143 1914 17 WP MM NOT_NAMED 1914-07-04 15:00:00 NR 15.0694 131.958 main 774 730 __________P___ -1 15.0694 131.958 4 9 292
1914183N11143 1914 17 WP MM NOT_NAMED 1914-07-04 18:00:00 NR 15.2444 131.522 main 730 703 __________P___ -1 15.2444 131.522 4 9 293
1914183N11143 1914 17 WP MM NOT_NAMED 1914-07-04 21:00:00 NR 15.4334 131.063 main 703 690 __________P___ -1 15.4334 131.063 4 10 293
1914183N11143 1914 17 WP MM NOT_NAMED 1914-07-04 22:00:00 NR 15.5000 130.900 main 690 660 __________O___ -1 15.5000 130.900 4 11 292
1914183N11143 1914 17 WP MM NOT_NAMED 1914-07-05 00:00:00 NR 15.6335 130.537 main 660 631 __________P___ -1 15.6335 130.537 4 12 291
1914183N11143 1914 17 WP MM NOT_NAMED 1914-07-05 03:00:00 NR 15.8461 129.962 main 631 586 __________P___ -1 15.8461 129.962 4 12 291
1914183N11143 1914 17 WP MM NOT_NAMED 1914-07-05 06:00:00 NR 16.0736 129.370 main 590 543 __________P___ -1 16.0736 129.370 4 12 293
1914183N11143 1914 17 WP MM NOT_NAMED 1914-07-05 09:00:00 NR 16.3159 128.788 main 543 530 __________P___ -1 16.3159 128.788 4 12 294
1914183N11143 1914 17 WP MM NOT_NAMED 1914-07-05 10:00:00 NR 16.4000 128.600 main 530 507 __________O___ -1 16.4000 128.600 4 12 296
1914183N11143 1914 17 WP MM NOT_NAMED 1914-07-05 12:00:00 NR 16.5798 128.218 main 507 480 __________P___ -1 16.5798 128.218 4 12 297
1914183N11143 1914 17 WP MM NOT_NAMED 1914-07-05 15:00:00 NR 16.8624 127.664 main 487 464 __________P___ -1 16.8624 127.664 4 12 299
1914183N11143 1914 17 WP MM NOT_NAMED 1914-07-05 18:00:00 NR 17.1464 127.156 main 465 448 __________P___ -1 17.1464 127.156 4 11 302
1914183N11143 1914 17 WP MM NOT_NAMED 1914-07-05 21:00:00 NR 17.4160 126.723 main 448 439 __________P___ -1 17.4160 126.723 4 10 304
1914183N11143 1914 17 WP MM NOT_NAMED 1914-07-05 22:00:00 NR 17.5000 126.600 main 439 419 __________O___ -1 17.5000 126.600 4 8 305
1914183N11143 1914 17 WP MM NOT_NAMED 1914-07-06 00:00:00 NR 17.6394 126.387 main 419 392 __________P___ -1 17.6394 126.387 4 7 307
1914183N11143 1914 17 WP MM NOT_NAMED 1914-07-06 03:00:00 NR 17.8299 126.144 main 392 384 __________P___ -1 17.8299 126.144 4 6 314
1914183N11143 1914 17 WP MM NOT_NAMED 1914-07-06 06:00:00 NR 18.0174 125.969 main 387 369 __________P___ -1 18.0174 125.969 4 5 324
1914183N11143 1914 17 WP MM NOT_NAMED 1914-07-06 09:00:00 NR 18.2235 125.838 main 369 369 __________P___ -1 18.2235 125.838 4 5 331
1914183N11143 1914 17 WP MM NOT_NAMED 1914-07-06 10:00:00 NR 18.3000 125.800 main 369 358 __________O___ -1 18.3000 125.800 4 5 336
1914183N11143 1914 17 WP MM NOT_NAMED 1914-07-06 12:00:00 NR 18.4613 125.726 main 358 349 __________P___ -1 18.4613 125.726 4 5 340
1914183N11143 1914 17 WP MM NOT_NAMED 1914-07-06 15:00:00 NR 18.7281 125.640 main 349 349 __________P___ -1 18.7281 125.640 4 6 344
1914183N11143 1914 17 WP MM NOT_NAMED 1914-07-06 18:00:00 NR 19.0306 125.558 main 354 344 __________P___ -1 19.0306 125.558 4 7 344
1914183N11143 1914 17 WP MM NOT_NAMED 1914-07-06 21:00:00 NR 19.3749 125.448 main 344 344 __________P___ -1 19.3749 125.448 4 7 342
1914183N11143 1914 17 WP MM NOT_NAMED 1914-07-06 22:00:00 NR 19.5000 125.400 main 348 342 __________O___ -1 19.5000 125.400 4 9 338
1914183N11143 1914 17 WP MM NOT_NAMED 1914-07-07 00:00:00 NR 19.7789 125.276 main 351 347 __________P___ -1 19.7789 125.276 4 10 336
1914183N11143 1914 17 WP MM NOT_NAMED 1914-07-07 03:00:00 NR 20.2353 125.051 main 356 352 __________P___ -1 20.2353 125.051 4 10 334
1914183N11143 1914 17 WP MM NOT_NAMED 1914-07-07 06:00:00 NR 20.7069 124.790 main 367 367 __________P___ -1 20.7069 124.790 4 11 331
1914183N11143 1914 17 WP MM NOT_NAMED 1914-07-07 09:00:00 NR 21.1593 124.501 main 380 367 __________P___ -1 21.1593 124.501 4 10 329
1914183N11143 1914 17 WP MM NOT_NAMED 1914-07-07 10:00:00 NR 21.3000 124.400 main 367 333 __________O___ -1 21.3000 124.400 4 9 328
1914183N11143 1914 17 WP MM NOT_NAMED 1914-07-07 12:00:00 NR 21.5603 124.234 main 333 298 __________P___ -1 21.5603 124.234 4 9 327
1914183N11143 1914 17 WP MM NOT_NAMED 1914-07-07 15:00:00 NR 21.9197 123.967 main 298 256 __________P___ -1 21.9197 123.967 4 9 321
1914183N11143 1914 17 WP MM NOT_NAMED 1914-07-07 18:00:00 NR 22.2396 123.651 main 256 205 __________P___ -1 22.2396 123.651 4 9 312
1914183N11143 1914 17 WP MM NOT_NAMED 1914-07-07 21:00:00 NR 22.5173 123.255 main 205 182 __________P___ -1 22.5173 123.255 4 9 305
1914183N11143 1914 17 WP MM NOT_NAMED 1914-07-07 22:00:00 NR 22.6000 123.100 main 182 137 __________O___ -1 22.6000 123.100 4 11 298
1914183N11143 1914 17 WP MM NOT_NAMED 1914-07-08 00:00:00 NR 22.7617 122.749 main 137 72 __________P___ -1 22.7617 122.749 4 12 292
1914183N11143 1914 17 WP MM NOT_NAMED 1914-07-08 03:00:00 NR 22.9663 122.140 main 72 10 __________P___ -1 22.9663 122.140 4 12 287
1914183N11143 1914 17 WP MM NOT_NAMED 1914-07-08 06:00:00 NR 23.1310 121.461 main 10 0 __________P___ -1 23.1310 121.461 4 13 283
1914183N11143 1914 17 WP MM NOT_NAMED 1914-07-08 09:00:00 NR 23.2624 120.743 main 0 0 __________P___ -1 23.2624 120.743 4 13 281
1914183N11143 1914 17 WP MM NOT_NAMED 1914-07-08 10:00:00 NR 23.3000 120.500 main 0 0 __________O___ -1 23.3000 120.500 4 13 278
1914183N11143 1914 17 WP MM NOT_NAMED 1914-07-08 12:00:00 NR 23.3571 120.020 main 20 20 __________P___ -1 23.3571 120.020 4 14 276
1914183N11143 1914 17 WP MM NOT_NAMED 1914-07-08 15:00:00 NR 23.4174 119.280 main 84 82 __________P___ -1 23.4174 119.280 4 14 275
1914183N11143 1914 17 WP MM NOT_NAMED 1914-07-08 18:00:00 NR 23.4745 118.541 main 82 23 __________P___ -1 23.4745 118.541 4 13 276
1914183N11143 1914 17 WP MM NOT_NAMED 1914-07-08 21:00:00 NR 23.5598 117.828 main 23 11 __________P___ -1 23.5598 117.828 4 13 278
1914183N11143 1914 17 WP MM NOT_NAMED 1914-07-08 22:00:00 NR 23.6000 117.600 main 11 0 __________O___ -1 23.6000 117.600 4 13 287
1914183N11143 1914 17 WP MM NOT_NAMED 1914-07-09 00:00:00 NR 23.7408 117.175 main 0 0 __________P___ -1 23.7408 117.175 4 12 293
1914183N11143 1914 17 WP MM NOT_NAMED 1914-07-09 03:00:00 NR 23.9913 116.569 main 0 0 __________P___ -1 23.9913 116.569 4 12 295
1914183N11143 1914 17 WP MM NOT_NAMED 1914-07-09 06:00:00 NR 24.2447 115.983 main 0 0 __________P___ -1 24.2447 115.983 4 12 293
1914183N11143 1914 17 WP MM NOT_NAMED 1914-07-09 09:00:00 NR 24.4506 115.398 main 0 0 __________P___ -1 24.4506 115.398 4 11 290
1914183N11143 1914 17 WP MM NOT_NAMED 1914-07-09 10:00:00 NR 24.5000 115.200 main 0 0 __________O___ -1 24.5000 115.200 4 12 280
1914183N11143 1914 17 WP MM NOT_NAMED 1914-07-09 12:00:00 NR 24.5536 114.767 main 0 0 __________P___ -1 24.5536 114.767 4 12 274
1914183N11143 1914 17 WP MM NOT_NAMED 1914-07-09 15:00:00 NR 24.5715 114.112 main 0 0 __________P___ -1 24.5715 114.112 4 12 269
1914183N11143 1914 17 WP MM NOT_NAMED 1914-07-09 18:00:00 NR 24.5276 113.475 main 0 0 __________P___ -1 24.5276 113.475 4 11 263
1914183N11143 1914 17 WP MM NOT_NAMED 1914-07-09 21:00:00 NR 24.4375 112.883 main 0 0 __________P___ -1 24.4375 112.883 4 11 260
1914183N11143 1914 17 WP MM NOT_NAMED 1914-07-09 22:00:00 NR 24.4000 112.700 main 0 0 __________O___ -1 24.4000 112.700 4 10 257
1914183N11143 1914 17 WP MM NOT_NAMED 1914-07-10 00:00:00 NR 24.3328 112.374 main 0 0 __________P___ -1 24.3328 112.374 4 9 254
1914183N11143 1914 17 WP MM NOT_NAMED 1914-07-10 03:00:00 NR 24.2013 111.935 main 0 0 __________P___ -1 24.2013 111.935 4 8 249
1914183N11143 1914 17 WP MM NOT_NAMED 1914-07-10 06:00:00 NR 24.0415 111.531 main 0 0 __________P___ -1 24.0415 111.531 4 8 245
1914183N11143 1914 17 WP MM NOT_NAMED 1914-07-10 09:00:00 NR 23.8624 111.135 main 0 0 __________P___ -1 23.8624 111.135 4 8 244
1914183N11143 1914 17 WP MM NOT_NAMED 1914-07-10 10:00:00 NR 23.8000 111.000 main 0 0 __________O___ -1 23.8000 111.000 4 9 243
1914183N11143 1914 17 WP MM NOT_NAMED 1914-07-10 12:00:00 NR 23.6726 110.720 main 0 0 __________P___ -1 23.6726 110.720 4 9 244
1914183N11143 1914 17 WP MM NOT_NAMED 1914-07-10 15:00:00 NR 23.4760 110.280 main 0 0 __________P___ -1 23.4760 110.280 4 9 244
1914183N11143 1914 17 WP MM NOT_NAMED 1914-07-10 18:00:00 NR 23.2743 109.822 main 0 0 __________P___ -1 23.2743 109.822 4 9 244
1914183N11143 1914 17 WP MM NOT_NAMED 1914-07-10 21:00:00 NR 23.0689 109.356 main 0 0 __________P___ -1 23.0689 109.356 4 10 244
1914183N11143 1914 17 WP MM NOT_NAMED 1914-07-10 22:00:00 NR 23.0000 109.200 main 0 __________O___ -1 23.0000 109.200 4 10 244

Digital Typhoon Data and Search

About IBTrACS Database

This database is a web-friendly format of International Best Track Archive for Climate Stewardship (IBTrACS), a global best track data archive curated by NOAA dating back to 1842.

Updated: 2021-10-25